This is the latest recevied weather packets stored in our database for station/object AH6GR. If no packets are shown the sender has not sent any weather packets the latest 10 day(s).
| Time | Temp. | Humidity | Pressure | Rain* | Wind** | Luminosity | Snow |
|---|---|---|---|---|---|---|---|
| 1777585823 | 23.89° C | 71% | 1019.1 hPa | 0 mm | - | - | - |
| 1777585531 | 23.89° C | 72% | 1018.3 hPa | 0 mm | - | - | - |
| 1777585223 | 23.33° C | 72% | 1019.2 hPa | 0 mm | - | - | - |
| 1777584623 | 24.44° C | 70% | 1019.4 hPa | 0 mm | - | - | - |
| 1777584603 | 23.89° C | 70% | 1018.5 hPa | 0 mm | - | - | - |
| 1777584023 | 23.89° C | 70% | 1019.5 hPa | 0 mm | - | - | - |
| 1777583747 | 23.89° C | 71% | 1018.7 hPa | 0 mm | - | - | - |
| 1777583423 | 23.89° C | 71% | 1019.6 hPa | 0 mm | - | - | - |
| 1777582823 | 23.89° C | 72% | 1019.5 hPa | 0 mm | - | - | - |
| 1777582822 | 23.33° C | 72% | 1018.6 hPa | 0 mm | - | - | - |
| 1777582223 | 23.89° C | 71% | 1019.7 hPa | 0 mm | - | - | - |
| 1777581958 | 23.33° C | 71% | 1018.9 hPa | 0 mm | - | - | - |
| 1777581622 | 24.44° C | 70% | 1019.8 hPa | 0 mm | - | - | - |
| 1777581031 | 23.33° C | 72% | 1018.9 hPa | 0 mm | - | - | - |
| 1777581023 | 23.89° C | 72% | 1019.8 hPa | 0 mm | - | - | - |
| 1777580423 | 23.89° C | 71% | 1019.9 hPa | 0 mm | - | - | - |
| 1777580157 | 23.89° C | 72% | 1019 hPa | 0 mm | - | - | - |
| 1777579823 | 23.89° C | 71% | 1019.8 hPa | 0 mm | - | - | - |
| 1777579237 | 23.33° C | 74% | 1018.9 hPa | 0 mm | - | - | - |
| 1777579223 | 23.89° C | 74% | 1019.8 hPa | 0 mm | - | - | - |
| 1777578623 | 23.89° C | 75% | 1019.7 hPa | 0 mm | - | - | - |
| 1777578314 | 23.33° C | 74% | 1018.9 hPa | 0 mm | - | - | - |
| 1777578023 | 23.33° C | 73% | 1019.9 hPa | 0 mm | - | - | - |
| 1777577456 | 23.33° C | 74% | 1019 hPa | 0 mm | - | - | - |
| 1777577423 | 23.33° C | 73% | 1019.9 hPa | 0 mm | - | - | - |
* Rain latest hour (hover to see other rain measurements)
** Current wind speed in m/s (hover to see current wind gust speed)